Miesville, Minnesota
Current Conditions -  °F | °C
As of 8:54 AM on Monday 22 Dec 2014 (Local Time) from KSYN Reporting Station
Haze Haze  
Wind Chill: 29°   Ceiling: 900
Heat Index: 37°   Visibility: 2.5mi
Dew Point: 34°   Wind: 13mph
Humidity: 87%   Direction: 140°SE
Pressure: 29.65"   Gusts: 18mph
Location:  44.4763°N, 92.8054°W
Report Text: KSYN 221454Z AUTO 14011G16KT 2 1/2SM BR OVC009 03/01 A2965 RMK AO2 60001 T00300011
Loading
Personal Weather Stations






























Interactive Weather Map New forecast layout! Learn more

10-Day Weather Forecast

Advertisements
Track Severe Weather on mobile